createdAt,value
2019-02-11T00:01:48.031Z,94.42
2019-02-11T00:04:16.580Z,94.40
2019-02-11T00:06:45.077Z,94.45
2019-02-11T00:09:12.904Z,94.37
2019-02-11T00:11:40.855Z,94.12
2019-02-11T00:14:09.506Z,93.53
2019-02-11T00:19:56.121Z,93.39
2019-02-11T00:22:24.380Z,93.53
2019-02-11T00:24:52.161Z,93.49
2019-02-11T00:27:20.321Z,93.47
2019-02-11T00:29:48.916Z,93.86
2019-02-11T00:32:17.095Z,94.16
2019-02-11T00:34:45.699Z,93.77
2019-02-11T00:37:13.957Z,92.47
2019-02-11T00:39:42.136Z,92.50
2019-02-11T00:42:10.431Z,92.69
2019-02-11T00:44:38.710Z,92.51
2019-02-11T00:47:06.875Z,92.93
2019-02-11T00:49:35.467Z,93.24
2019-02-11T00:52:03.762Z,93.24
2019-02-11T00:54:32.056Z,93.33
2019-02-11T00:57:00.736Z,93.39
2019-02-11T00:59:28.914Z,93.64
2019-02-11T01:01:57.496Z,93.64
2019-02-11T01:04:26.107Z,93.58
2019-02-11T01:06:54.189Z,93.02
2019-02-11T01:09:22.379Z,92.07
2019-02-11T01:11:51.036Z,91.82
2019-02-11T01:14:19.257Z,91.02
2019-02-11T01:16:47.408Z,90.40
2019-02-11T01:19:15.604Z,90.50
2019-02-11T01:21:43.373Z,90.45
2019-02-11T01:24:11.236Z,90.45
2019-02-11T01:26:39.809Z,90.13
2019-02-11T01:29:08.067Z,90.25
2019-02-11T01:31:36.590Z,90.23
2019-02-11T01:34:04.485Z,90.27
2019-02-11T01:36:33.047Z,90.42
2019-02-11T01:39:01.136Z,90.79
2019-02-11T01:41:29.286Z,90.58
2019-02-11T01:43:57.566Z,90.24
2019-02-11T01:46:26.057Z,89.99
2019-02-11T01:48:54.337Z,90.45
2019-02-11T01:51:22.638Z,89.69
2019-02-11T01:53:50.875Z,89.13
2019-02-11T01:56:19.181Z,89.09
2019-02-11T01:58:47.484Z,88.90
2019-02-11T02:01:15.349Z,88.14
2019-02-11T02:03:43.321Z,88.52
2019-02-11T02:06:11.346Z,88.87
2019-02-11T02:08:40.030Z,89.38
2019-02-11T02:11:08.777Z,89.26
2019-02-11T02:13:44.716Z,89.16
2019-02-11T02:16:13.119Z,89.36
2019-02-11T02:18:41.400Z,89.37
2019-02-11T02:21:09.580Z,89.65
2019-02-11T02:23:37.866Z,90.06
2019-02-11T02:26:06.470Z,89.83
2019-02-11T02:28:34.757Z,89.83
2019-02-11T02:31:02.599Z,89.73
2019-02-11T02:33:30.941Z,89.77
2019-02-11T02:35:59.118Z,89.68
2019-02-11T02:38:26.730Z,89.34
2019-02-11T02:40:55.320Z,89.59
2019-02-11T02:43:23.714Z,89.64
2019-02-11T02:45:52.392Z,89.09
2019-02-11T02:48:20.794Z,89.07
2019-02-11T02:53:30.375Z,89.68
2019-02-11T02:55:58.744Z,89.18
2019-02-11T02:58:26.904Z,89.38
2019-02-11T03:00:55.297Z,89.65
2019-02-11T03:03:23.472Z,89.78
2019-02-11T03:05:53.041Z,89.52
2019-02-11T03:08:31.716Z,89.38
2019-02-11T03:11:00.394Z,89.38
2019-02-11T03:13:28.993Z,89.62
2019-02-11T03:15:57.679Z,90.15
2019-02-11T03:18:25.956Z,90.48
2019-02-11T03:20:54.669Z,89.79
2019-02-11T03:23:22.857Z,89.17
2019-02-11T03:25:51.108Z,88.97
2019-02-11T03:28:19.632Z,89.26
2019-02-11T03:30:48.007Z,89.10
2019-02-11T03:33:16.226Z,88.98
2019-02-11T03:35:44.696Z,89.08
2019-02-11T03:38:12.691Z,88.98
2019-02-11T03:40:40.612Z,88.62
2019-02-11T03:43:08.229Z,88.53
2019-02-11T03:45:36.563Z,88.88
2019-02-11T03:48:05.247Z,89.10
2019-02-11T03:50:33.515Z,89.48
2019-02-11T03:53:01.906Z,89.93
2019-02-11T03:55:30.197Z,92.20
2019-02-11T03:57:58.782Z,91.72
2019-02-11T04:00:27.089Z,92.15
2019-02-11T04:02:55.749Z,92.27
2019-02-11T04:05:23.610Z,92.38
2019-02-11T04:07:52.247Z,92.14
2019-02-11T04:10:20.810Z,91.50
2019-02-11T04:12:49.355Z,91.35
2019-02-11T04:15:18.017Z,91.19
2019-02-11T04:17:46.097Z,90.80
2019-02-11T04:20:13.248Z,90.88
2019-02-11T04:22:41.417Z,90.76
2019-02-11T04:25:09.282Z,90.40
2019-02-11T04:27:37.566Z,90.33
2019-02-11T04:30:06.394Z,90.50
2019-02-11T04:32:34.978Z,90.61
2019-02-11T04:35:03.343Z,89.86
2019-02-11T04:37:31.638Z,89.86
2019-02-11T04:39:59.843Z,89.96
2019-02-11T04:42:27.654Z,89.86
2019-02-11T04:44:55.458Z,89.46
2019-02-11T04:47:23.709Z,89.39
2019-02-11T04:49:51.885Z,88.65
2019-02-11T04:52:20.152Z,88.25
2019-02-11T04:54:48.616Z,87.58
2019-02-11T04:57:17.254Z,87.54
2019-02-11T04:59:45.535Z,87.80
2019-02-11T05:05:34.885Z,86.43
2019-02-11T05:08:02.872Z,87.50
2019-02-11T05:10:31.358Z,85.91
2019-02-11T05:13:00.045Z,86.22
2019-02-11T05:15:28.701Z,85.54
2019-02-11T05:17:56.630Z,85.90
2019-02-11T05:20:24.650Z,86.29
2019-02-11T05:22:52.620Z,85.84
2019-02-11T05:25:21.366Z,86.48
2019-02-11T05:27:49.657Z,86.00
2019-02-11T05:30:17.940Z,85.73
2019-02-11T05:32:46.285Z,85.32
2019-02-11T05:35:14.988Z,85.95
2019-02-11T05:37:44.189Z,84.95
2019-02-11T05:40:31.592Z,84.59
2019-02-11T05:42:59.885Z,84.03
2019-02-11T05:45:27.759Z,83.84
2019-02-11T05:47:55.925Z,84.21
2019-02-11T05:50:24.123Z,83.39
2019-02-11T05:52:52.713Z,84.32
2019-02-11T05:55:21.547Z,83.56
2019-02-11T05:57:49.478Z,83.08
2019-02-11T06:03:14.303Z,82.93
2019-02-11T06:05:42.725Z,83.09
2019-02-11T06:08:11.065Z,82.81
2019-02-11T06:10:39.351Z,83.26
2019-02-11T06:13:07.727Z,82.30
2019-02-11T06:15:35.941Z,82.03
2019-02-11T06:18:04.141Z,82.63
2019-02-11T06:20:32.453Z,81.96
2019-02-11T06:23:00.745Z,82.44
2019-02-11T06:25:29.069Z,82.60
2019-02-11T06:27:57.728Z,83.18
2019-02-11T06:30:26.447Z,82.86
2019-02-11T06:32:54.697Z,83.75
2019-02-11T06:35:22.979Z,82.62
2019-02-11T06:37:51.267Z,83.12
2019-02-11T06:40:19.836Z,83.87
2019-02-11T06:42:48.435Z,83.48
2019-02-11T06:45:17.048Z,83.42
2019-02-11T06:47:45.977Z,82.88
2019-02-11T06:50:14.302Z,83.34
2019-02-11T06:52:42.177Z,82.91
2019-02-11T06:55:10.278Z,83.10
2019-02-11T06:57:38.878Z,83.11
2019-02-11T07:00:08.742Z,81.11
2019-02-11T07:02:37.198Z,82.08
2019-02-11T07:05:05.237Z,82.19
2019-02-11T07:07:33.914Z,82.10
2019-02-11T07:10:02.547Z,82.75
2019-02-11T07:12:30.807Z,82.76
2019-02-11T07:14:59.149Z,82.26
2019-02-11T07:17:27.960Z,82.11
2019-02-11T07:19:56.244Z,82.17
2019-02-11T07:22:25.044Z,81.29
2019-02-11T07:24:52.645Z,81.35
2019-02-11T07:27:20.587Z,81.48
2019-02-11T07:29:49.116Z,81.84
2019-02-11T07:32:16.960Z,81.13
2019-02-11T07:34:45.633Z,81.26
2019-02-11T07:37:14.227Z,81.35
2019-02-11T07:39:42.936Z,81.74
2019-02-11T07:42:30.322Z,80.27
2019-02-11T07:45:00.951Z,80.93
2019-02-11T07:47:28.840Z,81.39
2019-02-11T07:49:56.713Z,81.76
2019-02-11T07:52:26.848Z,81.26
2019-02-11T07:55:01.716Z,81.74
2019-02-11T07:57:29.662Z,82.04
2019-02-11T07:59:57.854Z,81.73
2019-02-11T08:02:26.526Z,82.33
2019-02-11T08:04:54.398Z,82.67
2019-02-11T08:07:22.264Z,81.81
2019-02-11T08:09:50.150Z,82.99
2019-02-11T08:12:18.540Z,82.80
2019-02-11T08:14:49.262Z,83.19
2019-02-11T08:17:18.387Z,83.00
2019-02-11T08:19:46.649Z,82.61
2019-02-11T08:22:15.040Z,82.76
2019-02-11T08:24:43.207Z,82.64
2019-02-11T08:27:11.161Z,83.01
2019-02-11T08:29:51.787Z,82.66
2019-02-11T08:32:19.878Z,82.07
2019-02-11T08:34:48.102Z,82.52
2019-02-11T08:37:16.381Z,82.81
2019-02-11T08:39:44.867Z,82.57
2019-02-11T08:42:12.804Z,82.72
2019-02-11T08:44:41.458Z,82.49
2019-02-11T08:47:09.816Z,83.12
2019-02-11T08:49:38.113Z,82.54
2019-02-11T08:52:06.724Z,82.67
2019-02-11T08:54:34.598Z,82.85
2019-02-11T08:57:02.638Z,81.98
2019-02-11T08:59:30.512Z,81.96
2019-02-11T09:01:59.317Z,82.18
2019-02-11T09:05:08.787Z,82.32
2019-02-11T09:07:37.514Z,82.30
2019-02-11T09:10:05.894Z,82.30
2019-02-11T09:12:34.712Z,82.59
2019-02-11T09:15:02.974Z,82.38
2019-02-11T09:17:31.797Z,81.91
2019-02-11T09:20:00.179Z,82.05
2019-02-11T09:22:28.002Z,81.75
2019-02-11T09:24:55.907Z,82.13
2019-02-11T09:27:25.010Z,82.10
2019-02-11T09:29:53.628Z,82.16
2019-02-11T09:32:22.927Z,81.07
2019-02-11T09:34:51.177Z,80.79
2019-02-11T09:37:19.592Z,81.44
2019-02-11T09:39:47.957Z,80.88
2019-02-11T09:42:16.739Z,80.59
2019-02-11T09:44:45.442Z,80.61
2019-02-11T09:47:13.704Z,80.31
2019-02-11T09:49:42.106Z,79.72
2019-02-11T09:52:10.415Z,79.42
2019-02-11T09:54:38.994Z,79.61
2019-02-11T09:57:07.527Z,78.95
2019-02-11T09:59:36.083Z,80.19
2019-02-11T10:02:44.299Z,79.63
2019-02-11T10:05:12.894Z,79.54
2019-02-11T10:07:41.451Z,78.81
2019-02-11T10:10:09.811Z,79.09
2019-02-11T10:12:37.723Z,79.21
2019-02-11T10:15:07.914Z,78.24
2019-02-11T10:17:35.874Z,78.08
2019-02-11T10:20:04.481Z,77.20
2019-02-11T10:22:33.152Z,77.92
2019-02-11T10:25:01.895Z,77.75
2019-02-11T10:27:30.633Z,76.52
2019-02-11T10:29:58.572Z,76.68
2019-02-11T10:32:27.204Z,76.88
2019-02-11T10:34:55.131Z,77.04
2019-02-11T10:37:23.422Z,77.02
2019-02-11T10:39:52.089Z,76.96
2019-02-11T10:42:20.113Z,76.85
2019-02-11T10:44:48.075Z,75.98
2019-02-11T10:47:17.245Z,75.86
2019-02-11T10:49:45.593Z,75.25
2019-02-11T10:52:14.400Z,74.62
2019-02-11T10:54:43.107Z,74.99
2019-02-11T10:57:10.630Z,73.10
2019-02-11T10:59:39.364Z,73.75
2019-02-11T11:02:08.029Z,72.43
2019-02-11T11:04:36.302Z,73.05
2019-02-11T11:07:04.682Z,71.32
2019-02-11T11:09:33.004Z,71.70
2019-02-11T11:12:01.020Z,72.09
2019-02-11T11:14:28.922Z,71.39
2019-02-11T11:16:57.531Z,72.22
2019-02-11T11:19:26.064Z,71.82
2019-02-11T11:21:54.807Z,71.79
2019-02-11T11:24:23.440Z,71.82
2019-02-11T11:26:51.429Z,72.50
2019-02-11T11:29:19.823Z,72.14
2019-02-11T11:31:48.118Z,71.76
2019-02-11T11:34:16.809Z,71.12
2019-02-11T11:36:44.390Z,72.63
2019-02-11T11:39:32.122Z,72.88
2019-02-11T11:42:00.377Z,72.26
2019-02-11T11:44:28.676Z,72.95
2019-02-11T11:46:56.547Z,73.01
2019-02-11T11:49:24.823Z,73.60
2019-02-11T11:51:53.008Z,73.37
2019-02-11T11:54:20.480Z,73.13
2019-02-11T11:56:49.182Z,74.19
2019-02-11T11:59:17.556Z,74.80
2019-02-11T12:01:46.152Z,73.95
2019-02-11T12:04:14.471Z,74.52
2019-02-11T12:06:42.934Z,74.09
2019-02-11T12:09:10.464Z,75.89
2019-02-11T12:11:39.309Z,75.10
2019-02-11T12:14:07.328Z,75.09
2019-02-11T12:16:35.894Z,74.68
2019-02-11T12:19:04.729Z,74.32
2019-02-11T12:21:33.379Z,74.78
2019-02-11T12:24:01.999Z,74.54
2019-02-11T12:26:29.935Z,75.70
2019-02-11T12:28:58.267Z,75.97
2019-02-11T12:31:26.996Z,75.87
2019-02-11T12:33:55.681Z,75.44
2019-02-11T12:36:23.936Z,74.91
2019-02-11T12:38:51.503Z,73.83
2019-02-11T12:41:20.078Z,74.41
2019-02-11T12:43:48.286Z,74.04
2019-02-11T12:46:16.024Z,74.71
2019-02-11T12:48:44.441Z,77.14
2019-02-11T12:51:13.332Z,77.00
2019-02-11T12:53:41.633Z,78.18
2019-02-11T12:56:09.543Z,78.40
2019-02-11T12:58:37.866Z,79.25
2019-02-11T13:01:06.463Z,79.47
2019-02-11T13:03:34.507Z,78.85
2019-02-11T13:06:02.759Z,76.92
2019-02-11T13:08:31.265Z,75.07
2019-02-11T13:10:59.327Z,74.32
2019-02-11T13:13:27.624Z,73.66
2019-02-11T13:16:01.612Z,73.88
2019-02-11T13:18:31.798Z,74.95
2019-02-11T13:21:08.383Z,74.84
2019-02-11T13:23:36.710Z,75.01
2019-02-11T13:26:04.972Z,76.12
2019-02-11T13:28:33.725Z,75.96
2019-02-11T13:31:02.341Z,76.51
2019-02-11T13:33:30.798Z,77.39
2019-02-11T13:39:27.810Z,77.42
2019-02-11T13:41:56.102Z,77.94
2019-02-11T13:44:24.923Z,76.80
2019-02-11T13:46:53.201Z,75.68
2019-02-11T13:49:21.494Z,74.60
2019-02-11T13:51:49.534Z,74.26
2019-02-11T13:54:17.540Z,73.95
2019-02-11T13:56:46.284Z,73.00
2019-02-11T13:59:14.267Z,73.10
2019-02-11T14:01:42.163Z,72.59
2019-02-11T14:04:10.501Z,73.28
2019-02-11T14:06:38.836Z,74.56
2019-02-11T14:09:11.323Z,72.95
2019-02-11T14:11:39.526Z,73.60
2019-02-11T14:14:07.751Z,74.24
2019-02-11T14:16:47.890Z,73.92
2019-02-11T14:19:15.559Z,72.71
2019-02-11T14:21:44.179Z,72.40
2019-02-11T14:24:12.749Z,72.80
2019-02-11T14:26:41.170Z,72.75
2019-02-11T14:29:28.154Z,73.14
2019-02-11T14:32:08.503Z,74.00
2019-02-11T14:34:37.110Z,74.45
2019-02-11T14:37:05.820Z,74.49
2019-02-11T14:39:34.534Z,75.27
2019-02-11T14:42:02.579Z,74.08
2019-02-11T14:44:30.963Z,73.81
2019-02-11T14:46:59.741Z,73.44
2019-02-11T14:49:27.837Z,72.53
2019-02-11T14:51:56.049Z,73.50
2019-02-11T14:54:24.498Z,73.11
2019-02-11T14:56:53.379Z,73.92
2019-02-11T14:59:22.112Z,73.70
2019-02-11T15:01:50.734Z,74.06
2019-02-11T15:04:19.463Z,74.46
2019-02-11T15:06:47.403Z,73.79
2019-02-11T15:09:15.948Z,73.92
2019-02-11T15:11:44.742Z,74.51
2019-02-11T15:14:13.506Z,72.49
2019-02-11T15:16:41.486Z,72.40
2019-02-11T15:19:10.181Z,72.33
2019-02-11T15:21:38.464Z,73.55
2019-02-11T15:24:06.549Z,71.48
2019-02-11T15:26:34.514Z,71.01
2019-02-11T15:29:02.519Z,72.00
2019-02-11T15:31:31.279Z,71.98
2019-02-11T15:33:59.602Z,73.27
2019-02-11T15:36:28.353Z,73.63
2019-02-11T15:38:56.334Z,74.06
2019-02-11T15:41:24.493Z,75.08
2019-02-11T15:43:52.478Z,74.59
2019-02-11T15:46:21.092Z,74.22
2019-02-11T15:48:49.050Z,75.56
2019-02-11T15:51:17.416Z,75.18
2019-02-11T15:53:45.394Z,72.51
2019-02-11T15:56:14.213Z,67.96
2019-02-11T15:58:42.864Z,63.73
2019-02-11T16:01:11.680Z,62.26
2019-02-11T16:03:39.960Z,63.62
2019-02-11T16:06:10.619Z,65.57
2019-02-11T16:08:46.268Z,68.77
2019-02-11T16:11:14.643Z,71.33
2019-02-11T16:13:42.623Z,72.93
2019-02-11T16:16:11.387Z,73.92
2019-02-11T16:18:39.419Z,74.96
2019-02-11T16:21:08.036Z,75.62
2019-02-11T16:23:36.450Z,75.58
2019-02-11T16:26:05.097Z,75.21
2019-02-11T16:28:32.961Z,75.68
2019-02-11T16:31:02.213Z,76.63
2019-02-11T16:33:30.108Z,77.60
2019-02-11T16:35:58.078Z,78.21
2019-02-11T16:38:27.213Z,78.80
2019-02-11T16:40:55.158Z,79.62
2019-02-11T16:43:23.012Z,80.50
2019-02-11T16:45:51.412Z,80.71
2019-02-11T16:48:20.280Z,80.00
2019-02-11T16:50:48.563Z,79.85
2019-02-11T16:53:17.199Z,79.77
2019-02-11T16:55:45.355Z,80.74
2019-02-11T16:58:13.346Z,80.79
2019-02-11T17:00:42.228Z,80.27
2019-02-11T17:03:10.527Z,80.48
2019-02-11T17:05:39.410Z,80.69
2019-02-11T17:08:07.678Z,81.17
2019-02-11T17:10:36.544Z,81.23
2019-02-11T17:13:04.554Z,81.14
2019-02-11T17:15:32.130Z,81.45
2019-02-11T17:18:00.606Z,81.92
2019-02-11T17:20:29.301Z,81.82
2019-02-11T17:22:57.893Z,81.82
2019-02-11T17:25:26.164Z,82.43
2019-02-11T17:27:54.244Z,81.98
2019-02-11T17:30:23.928Z,82.64
2019-02-11T17:32:52.767Z,81.81
2019-02-11T17:35:21.258Z,80.88
2019-02-11T17:37:49.709Z,81.19
2019-02-11T17:40:17.660Z,81.24
2019-02-11T17:45:28.332Z,81.31
2019-02-11T17:47:56.884Z,81.46
2019-02-11T17:50:24.858Z,81.91
2019-02-11T17:52:53.420Z,82.49
2019-02-11T17:55:21.660Z,82.66
2019-02-11T18:03:33.705Z,81.84
2019-02-11T18:06:02.440Z,82.42
2019-02-11T18:08:31.317Z,81.65
2019-02-11T18:10:59.195Z,82.16
2019-02-11T18:13:27.963Z,81.79
2019-02-11T18:15:56.013Z,82.07
2019-02-11T18:18:24.808Z,81.63
2019-02-11T18:20:53.588Z,81.75
2019-02-11T18:23:22.611Z,82.02
2019-02-11T18:25:51.358Z,82.07
2019-02-11T18:28:19.625Z,82.18
2019-02-11T18:30:50.049Z,82.29
2019-02-11T18:33:18.119Z,82.78
2019-02-11T18:35:46.125Z,82.72
2019-02-11T18:38:14.141Z,82.86
2019-02-11T18:40:42.899Z,82.97
2019-02-11T18:43:11.604Z,83.05
2019-02-11T18:45:39.553Z,82.74
2019-02-11T18:48:07.562Z,83.16
2019-02-11T18:50:37.525Z,83.36
2019-02-11T18:53:06.340Z,83.35
2019-02-11T18:55:35.057Z,83.27
2019-02-11T18:58:03.314Z,83.17
2019-02-11T19:00:32.261Z,83.07
2019-02-11T19:03:00.857Z,83.51
2019-02-11T19:05:30.815Z,83.14
2019-02-11T19:07:59.201Z,83.53
2019-02-11T19:13:08.661Z,83.73
2019-02-11T19:18:18.781Z,83.31
2019-02-11T19:20:47.119Z,83.24
2019-02-11T19:23:15.515Z,83.16
2019-02-11T19:25:44.412Z,83.43
2019-02-11T19:28:12.674Z,83.38
2019-02-11T19:30:41.060Z,83.46
2019-02-11T19:33:09.473Z,83.54
2019-02-11T19:35:37.857Z,83.86
2019-02-11T19:38:08.074Z,83.71
2019-02-11T19:40:36.951Z,83.86
2019-02-11T19:43:05.020Z,84.59
2019-02-11T19:45:33.258Z,85.08
2019-02-11T19:48:01.598Z,84.81
2019-02-11T19:50:30.036Z,84.89
2019-02-11T19:52:59.094Z,85.08
2019-02-11T19:55:27.808Z,84.96
2019-02-11T19:57:56.455Z,85.02
2019-02-11T20:00:24.847Z,84.71
2019-02-11T20:02:53.263Z,84.28
2019-02-11T20:05:21.635Z,84.59
2019-02-11T20:07:50.536Z,84.65
2019-02-11T20:10:19.306Z,84.73
2019-02-11T20:12:47.570Z,85.06
2019-02-11T20:15:17.956Z,85.17
2019-02-11T20:17:46.602Z,85.41
2019-02-11T20:20:16.387Z,85.53
2019-02-11T20:22:44.861Z,85.53
2019-02-11T20:25:32.533Z,85.37
2019-02-11T20:28:00.621Z,85.30
2019-02-11T20:30:28.799Z,85.38
2019-02-11T20:32:57.386Z,85.52
2019-02-11T20:35:25.799Z,85.25
2019-02-11T20:37:53.713Z,85.80
2019-02-11T20:40:23.133Z,86.03
2019-02-11T20:42:51.468Z,85.46
2019-02-11T20:45:21.398Z,85.77
2019-02-11T20:47:50.038Z,85.77
2019-02-11T20:50:19.290Z,85.65
2019-02-11T20:52:48.473Z,85.86
2019-02-11T20:55:16.863Z,85.85
2019-02-11T20:57:45.974Z,85.93
2019-02-11T21:03:17.369Z,85.87
2019-02-11T21:05:45.407Z,86.14
2019-02-11T21:08:14.185Z,86.29
2019-02-11T21:13:23.594Z,86.76
2019-02-11T21:15:52.809Z,87.71
2019-02-11T21:18:41.076Z,88.18
2019-02-11T21:21:21.246Z,89.33
2019-02-11T21:29:58.840Z,86.89
2019-02-11T21:32:27.729Z,87.32
2019-02-11T21:34:56.524Z,88.43
2019-02-11T21:40:05.879Z,89.04
2019-02-11T21:42:54.248Z,89.80
2019-02-11T21:45:22.635Z,90.47
2019-02-11T21:47:51.180Z,89.99
2019-02-11T21:50:26.421Z,89.55
2019-02-11T21:52:58.779Z,89.60
2019-02-11T21:55:27.713Z,89.76
2019-02-11T21:57:56.365Z,90.14
2019-02-11T22:00:36.850Z,90.92
2019-02-11T22:03:05.264Z,91.02
2019-02-11T22:05:34.094Z,91.20
2019-02-11T22:11:18.254Z,91.90
2019-02-11T22:13:47.392Z,92.60
2019-02-11T22:16:35.596Z,92.88
2019-02-11T22:19:04.301Z,91.97
2019-02-11T22:21:32.761Z,92.30
2019-02-11T22:30:13.890Z,91.77
2019-02-11T22:35:24.640Z,90.78
2019-02-11T22:40:54.172Z,91.00
2019-02-11T22:43:22.483Z,90.58
2019-02-11T22:45:50.856Z,90.90
2019-02-11T22:48:19.123Z,91.86
2019-02-11T22:50:47.922Z,91.29
2019-02-11T22:53:16.470Z,90.64
2019-02-11T22:55:45.244Z,90.17
2019-02-11T22:58:13.493Z,90.40
2019-02-11T23:04:03.570Z,89.66
2019-02-11T23:06:32.188Z,89.33
2019-02-11T23:09:00.436Z,89.38
2019-02-11T23:11:28.659Z,89.58
2019-02-11T23:13:56.995Z,89.16
2019-02-11T23:16:25.343Z,88.69
2019-02-11T23:18:53.363Z,88.71
2019-02-11T23:21:22.247Z,89.05
2019-02-11T23:23:50.837Z,88.27
2019-02-11T23:26:19.431Z,88.59
2019-02-11T23:28:47.876Z,88.59
2019-02-11T23:31:16.302Z,88.62
2019-02-11T23:33:44.182Z,90.00
2019-02-11T23:36:12.096Z,88.28
2019-02-11T23:38:39.928Z,88.68
2019-02-11T23:41:08.310Z,88.49
2019-02-11T23:43:36.904Z,88.81
2019-02-11T23:46:06.508Z,88.74
2019-02-11T23:48:34.498Z,88.48
2019-02-11T23:51:03.185Z,88.85
2019-02-11T23:53:31.468Z,88.92
2019-02-11T23:55:59.758Z,88.57
2019-02-11T23:58:27.948Z,88.63
